Accueil
METAR-TAF:

METAR-TAF

Aéroports :

Logroño, Espagne

latitude: 42-27N, longitude: 002-20W, altitude: 353 m

Observation

Le bulletin a été fait il y a 6 heures et 20 minutes, à 21:00 UTC
Vent 8 kt de ouest, variant entre sud-ouest et ouest/nord-ouest
Température 12°C
Humidité 88%
Pression 1011 hPa
Visibilité 10 km ou plus
Nuages fragmentés à une hauteur de 2500 ft
Ciel couvert à une hauteur de 3500 ft
pluie faible

METAR: LELO 182100Z 26008KT 230V290 9999 -RA BKN025 OVC035 12/10 Q1011

Heure: 05:20 (03:20 UTC)

Prévision

Le bulletin a été fait il y a 1 heure et 20 minutes, à 02:00 UTC
Prévision valable du 19 à 03 UTC au 19 à 12 UTC
Vent 3 kt de direction variable
Visibilité 10 km ou plus
Nuages fragmentés à une hauteur de 3500 ft

TAF: LELO 190200Z 1903/1912 VRB03KT 9999 BKN035

Observations et prévisions météorologiques de plus de 4000 aéroports (messages METAR et TAF).

Les stations disponibles sont représentées par des disques jaunes et rouges sur la carte.

Passer la souris dessus pour voir le nom de la station.

Cliquer dessus pour voir les observations et prévisions météorologiques.

Pour changer de carte: cliquez sur les boutons verts avec une croix noire pour zoomer, sur le bouton vert avec un tiret pour effectuer un zoom arrière, ou sur les flèches vertes pour les cartes adjacentes.


METAR-TAF: